Time;durP1;ratioP1;P1;durP2;ratioP2;P2;SDS_P1;SDS_P2;PMS_P1;PMS_P2;Temp;Humidity;BMP_temperature;BMP_pressure;BME280_temperature;BME280_humidity;BME280_pressure;Samples;Min_cycle;Max_cycle;Signal;HPM_P1;HPM_P2
2023/04/04 00:00:54;;;;;;;3.78;1.60;;;;;;;4.65;78.11;102969.28;5023147;28;20035;-69
2023/04/04 00:03:20;;;;;;;10.18;1.90;;;;;;;4.61;78.41;102968.63;5040133;28;20512;-68
2023/04/04 00:05:45;;;;;;;9.75;2.03;;;;;;;4.60;78.15;102977.59;5040412;28;20060;-69
2023/04/04 00:08:10;;;;;;;9.27;2.03;;;;;;;4.65;78.67;102975.44;5056478;28;20025;-68
2023/04/04 00:10:36;;;;;;;4.53;2.30;;;;;;;4.58;77.83;102952.00;5038466;28;20025;-69
2023/04/04 00:13:01;;;;;;;5.80;2.30;;;;;;;4.66;78.17;102958.47;5023698;28;20048;-68
2023/04/04 00:15:27;;;;;;;4.90;2.40;;;;;;;4.82;78.43;102968.09;5058089;28;20033;-69
2023/04/04 00:17:52;;;;;;;11.68;2.30;;;;;;;4.84;78.27;102959.00;5040243;28;20029;-68
2023/04/04 00:20:18;;;;;;;7.72;2.08;;;;;;;4.66;78.95;102915.81;5057541;28;20403;-68
2023/04/04 00:22:44;;;;;;;6.85;2.47;;;;;;;4.94;79.14;102957.41;5057173;28;20580;-68
2023/04/04 00:25:09;;;;;;;7.07;1.90;;;;;;;4.97;79.21;102959.00;5058124;28;20136;-69
2023/04/04 00:27:35;;;;;;;6.93;2.17;;;;;;;4.99;79.46;102962.41;5040102;28;20045;-69
2023/04/04 00:30:00;;;;;;;6.05;2.13;;;;;;;4.99;79.72;102959.72;5057235;28;20033;-68
2023/04/04 00:32:26;;;;;;;7.20;2.20;;;;;;;5.01;79.54;102955.16;5022580;28;20028;-69
2023/04/04 00:34:52;;;;;;;7.60;2.30;;;;;;;5.00;80.04;102950.78;5039801;28;20032;-68
2023/04/04 00:37:18;;;;;;;7.07;2.15;;;;;;;4.97;79.81;102943.00;5039423;28;20082;-68
2023/04/04 00:39:43;;;;;;;8.75;2.30;;;;;;;4.98;80.22;102944.69;5039842;28;20033;-68
2023/04/04 00:42:09;;;;;;;6.82;2.10;;;;;;;4.92;80.04;102935.31;5040304;28;20063;-68
2023/04/04 00:44:35;;;;;;;8.02;2.00;;;;;;;4.95;80.16;102932.41;5025141;28;20052;-69
2023/04/04 00:47:01;;;;;;;5.93;1.80;;;;;;;4.89;80.56;102932.84;5024682;28;20048;-69
2023/04/04 00:49:27;;;;;;;6.65;2.05;;;;;;;4.81;80.62;102932.56;5041673;28;20126;-69
2023/04/04 00:51:53;;;;;;;7.43;1.88;;;;;;;4.50;79.98;102893.84;5040635;28;20033;-68
2023/04/04 00:54:19;;;;;;;5.60;1.80;;;;;;;4.60;80.52;102924.28;5044449;28;20025;-69
2023/04/04 00:56:45;;;;;;;5.15;2.05;;;;;;;4.48;80.62;102919.78;5045586;28;20055;-68
2023/04/04 00:59:12;;;;;;;9.35;2.30;;;;;;;4.49;80.09;102918.81;5045501;28;20101;-69
2023/04/04 01:01:37;;;;;;;5.03;1.90;;;;;;;4.35;80.61;102897.63;5045379;28;20025;-69
2023/04/04 01:04:03;;;;;;;9.30;1.83;;;;;;;4.36;80.43;102902.81;5063237;28;20036;-68
2023/04/04 01:06:31;;;;;;;7.85;1.98;;;;;;;4.46;80.12;102916.38;5063900;28;20215;-68
2023/04/04 01:08:56;;;;;;;7.70;2.03;;;;;;;4.50;79.72;102915.19;5045224;28;20055;-69
2023/04/04 01:11:23;;;;;;;8.55;2.13;;;;;;;4.44;79.86;102889.84;5028619;28;20123;-69
2023/04/04 01:13:49;;;;;;;8.40;2.30;;;;;;;4.57;80.29;102899.59;5029034;28;20028;-68
2023/04/04 01:16:14;;;;;;;10.82;2.47;;;;;;;4.44;80.15;102876.50;5045320;28;20121;-69
2023/04/04 01:18:41;;;;;;;4.82;1.92;;;;;;;4.53;80.10;102879.47;5063747;28;20123;-69
2023/04/04 01:21:11;;;;;;;5.88;2.00;;;;;;;4.59;80.47;102876.38;5028182;28;20044;-69
2023/04/04 01:23:58;;;;;;;4.78;1.77;;;;;;;4.78;80.58;102902.59;5063125;28;20052;-69
2023/04/04 01:26:25;;;;;;;8.00;1.83;;;;;;;4.71;80.17;102884.34;5044995;28;20059;-67
2023/04/04 01:28:51;;;;;;;6.10;2.00;;;;;;;4.81;80.50;102889.03;5045010;28;20021;-69
2023/04/04 01:31:42;;;;;;;6.22;1.95;;;;;;;4.88;80.10;102895.63;5044664;28;20040;-69
2023/04/04 01:34:22;;;;;;;6.78;1.80;;;;;;;4.92;80.40;102908.63;5056715;28;20112;-68
2023/04/04 01:37:26;;;;;;;8.23;2.10;;;;;;;4.94;81.34;102906.72;5061561;28;20020;-68
2023/04/04 01:40:04;;;;;;;9.00;1.95;;;;;;;4.81;80.88;102876.53;5022596;28;20037;-69
2023/04/04 01:42:30;;;;;;;6.03;1.85;;;;;;;4.98;80.67;102899.34;5061305;28;20029;-70
2023/04/04 01:44:56;;;;;;;6.50;1.88;;;;;;;5.00;80.50;102904.53;5042710;28;20395;-68
2023/04/04 01:47:22;;;;;;;6.80;2.00;;;;;;;4.84;80.53;102878.16;5060674;28;20041;-69
2023/04/04 01:49:48;;;;;;;5.63;1.77;;;;;;;4.94;80.36;102898.72;5060171;28;20013;-69
2023/04/04 01:52:13;;;;;;;5.63;1.63;;;;;;;4.97;81.23;102896.75;5060975;28;20041;-69
2023/04/04 01:54:39;;;;;;;5.63;2.10;;;;;;;4.93;80.43;102889.00;5042739;28;20597;-68
2023/04/04 01:57:05;;;;;;;5.03;1.58;;;;;;;4.93;80.85;102886.34;5042162;28;20037;-69
2023/04/04 01:59:30;;;;;;;3.65;1.67;;;;;;;4.89;81.01;102881.31;5025014;28;20396;-69
2023/04/04 02:01:56;;;;;;;6.70;2.00;;;;;;;4.87;80.88;102878.78;5058968;28;20118;-69
2023/04/04 02:04:22;;;;;;;5.82;1.83;;;;;;;4.87;81.25;102870.78;5040523;28;20036;-69
2023/04/04 02:06:47;;;;;;;6.88;1.75;;;;;;;4.88;81.21;102872.47;5025493;28;20055;-69
2023/04/04 02:09:12;;;;;;;7.28;1.88;;;;;;;4.86;81.10;102873.53;5061639;28;20025;-69
2023/04/04 02:11:38;;;;;;;5.57;2.08;;;;;;;4.85;80.87;102871.84;5062050;28;20029;-69
2023/04/04 02:14:04;;;;;;;6.15;1.65;;;;;;;4.89;81.32;102866.16;5026938;28;20120;-68
2023/04/04 02:16:29;;;;;;;6.45;1.63;;;;;;;4.89;81.22;102863.50;5043768;28;20025;-69
2023/04/04 02:18:55;;;;;;;4.82;1.67;;;;;;;4.99;80.51;102862.81;5061307;28;20041;-68
2023/04/04 02:21:21;;;;;;;4.15;1.50;;;;;;;5.02;80.61;102860.78;5043573;28;20053;-68
2023/04/04 02:23:47;;;;;;;7.18;1.73;;;;;;;5.00;80.69;102854.72;5043584;28;20711;-68
2023/04/04 02:26:12;;;;;;;6.15;1.88;;;;;;;5.05;80.64;102857.91;5026920;28;20067;-68
2023/04/04 02:28:38;;;;;;;6.05;1.50;;;;;;;5.07;80.39;102850.63;5061096;28;20370;-69
2023/04/04 02:31:04;;;;;;;9.80;1.95;;;;;;;5.07;80.99;102844.47;5043240;28;20025;-69
2023/04/04 02:33:30;;;;;;;4.25;1.50;;;;;;;4.94;80.81;102816.00;5044019;28;20056;-69
2023/04/04 02:35:59;;;;;;;4.95;1.65;;;;;;;5.10;80.56;102829.06;5061571;28;20029;-68
2023/04/04 02:38:25;;;;;;;4.20;1.63;;;;;;;5.09;80.73;102830.00;5076778;28;20051;-69
2023/04/04 02:40:51;;;;;;;7.20;1.38;;;;;;;5.09;80.86;102835.34;5062791;28;20040;-69
2023/04/04 02:43:16;;;;;;;6.78;1.55;;;;;;;5.11;80.33;102833.44;5062831;28;20321;-69
2023/04/04 02:45:42;;;;;;;3.85;1.70;;;;;;;5.10;80.57;102829.06;5080540;28;20037;-68
2023/04/04 02:48:07;;;;;;;5.80;1.70;;;;;;;5.09;80.66;102822.00;5079964;28;20039;-69
2023/04/04 02:50:33;;;;;;;6.10;1.45;;;;;;;5.05;81.53;102825.03;5080911;28;20040;-69
2023/04/04 02:53:02;;;;;;;3.45;1.15;;;;;;;4.89;81.69;102807.47;5063206;28;20028;-68
2023/04/04 02:55:29;;;;;;;5.22;1.80;;;;;;;5.10;80.97;102826.41;5063406;28;20040;-69
2023/04/04 02:57:54;;;;;;;5.50;1.73;;;;;;;5.11;81.37;102820.09;5062787;28;20028;-68
2023/04/04 03:00:20;;;;;;;5.22;1.30;;;;;;;5.10;81.27;102821.06;5080502;28;20033;-68
2023/04/04 03:02:55;;;;;;;4.10;1.50;;;;;;;5.13;81.11;102815.50;5063497;28;20048;-68
2023/04/04 03:05:23;;;;;;;5.13;1.35;;;;;;;5.09;80.57;102810.50;5080658;28;20020;-67
2023/04/04 03:07:54;;;;;;;4.75;1.40;;;;;;;5.06;80.49;102795.53;5080981;28;20132;-68
2023/04/04 03:10:21;;;;;;;7.30;1.60;;;;;;;5.16;80.65;102807.25;5081990;28;20403;-68
2023/04/04 03:12:46;;;;;;;8.45;1.65;;;;;;;5.23;80.56;102810.34;5062723;28;20029;-68
2023/04/04 03:15:12;;;;;;;7.20;1.55;;;;;;;5.27;80.07;102811.78;5062354;28;20032;-68
2023/04/04 03:17:38;;;;;;;3.67;1.38;;;;;;;5.31;80.04;102807.06;5061893;28;20039;-68
2023/04/04 03:20:04;;;;;;;3.80;1.33;;;;;;;5.33;80.04;102807.78;5080824;28;20139;-68
2023/04/04 03:22:29;;;;;;;5.45;1.40;;;;;;;5.36;79.70;102799.56;5080047;28;20024;-68
2023/04/04 03:24:54;;;;;;;4.93;1.38;;;;;;;5.36;80.17;102796.88;5082166;28;20032;-68
2023/04/04 03:27:20;;;;;;;5.13;1.40;;;;;;;5.40;79.86;102795.72;5061946;28;20451;-69
2023/04/04 03:29:46;;;;;;;4.35;1.52;;;;;;;5.33;79.93;102781.97;5062159;28;20025;-69
2023/04/04 03:32:11;;;;;;;3.47;1.17;;;;;;;5.45;79.53;102798.03;5079878;28;20081;-69
2023/04/04 03:34:37;;;;;;;3.33;1.20;;;;;;;5.38;80.14;102789.63;5080016;28;20024;-69
2023/04/04 03:37:03;;;;;;;5.43;1.50;;;;;;;5.43;79.79;102790.13;5045897;28;20082;-69
2023/04/04 03:39:29;;;;;;;4.45;1.33;;;;;;;5.40;80.03;102791.22;5083168;28;20021;-69
2023/04/04 03:41:56;;;;;;;4.35;1.30;;;;;;;5.37;80.33;102788.78;5062453;28;20028;-69
2023/04/04 03:44:22;;;;;;;7.22;1.30;;;;;;;5.47;79.79;102790.75;5080489;28;20025;-69
2023/04/04 03:46:47;;;;;;;6.43;1.20;;;;;;;5.40;79.51;102771.69;5080628;28;20051;-69
2023/04/04 03:49:13;;;;;;;3.53;1.10;;;;;;;5.39;80.05;102785.97;5063058;28;20058;-69
2023/04/04 03:51:38;;;;;;;5.60;1.40;;;;;;;5.41;80.54;102789.38;5029320;28;20043;-69
2023/04/04 03:54:03;;;;;;;3.65;1.30;;;;;;;5.48;79.80;102787.94;5045394;28;20029;-69
2023/04/04 03:56:31;;;;;;;5.70;1.33;;;;;;;5.57;79.23;102789.94;5061962;28;20115;-68
2023/04/04 03:58:57;;;;;;;5.05;1.27;;;;;;;5.60;79.35;102789.69;5062538;28;20043;-69
2023/04/04 04:01:22;;;;;;;4.20;1.30;;;;;;;5.65;79.40;102783.97;5062219;28;20063;-69
2023/04/04 04:03:48;;;;;;;5.30;1.17;;;;;;;5.58;79.47;102764.06;5062105;28;20033;-69
2023/04/04 04:06:13;;;;;;;6.03;1.45;;;;;;;5.73;78.97;102778.03;5050407;28;20024;-68
2023/04/04 04:08:39;;;;;;;4.43;1.48;;;;;;;5.67;79.27;102775.88;5063689;28;20252;-69
2023/04/04 04:11:05;;;;;;;5.93;1.17;;;;;;;5.78;79.25;102770.53;5079931;28;20529;-70
2023/04/04 04:13:31;;;;;;;3.80;1.20;;;;;;;5.82;79.09;102774.66;5044377;28;20127;-68
2023/04/04 04:15:56;;;;;;;6.88;1.38;;;;;;;5.84;78.89;102767.38;5078776;28;20459;-68
2023/04/04 04:18:22;;;;;;;3.05;1.27;;;;;;;5.75;79.06;102752.91;5079745;28;20035;-67
2023/04/04 04:20:47;;;;;;;4.53;1.40;;;;;;;5.75;79.24;102752.06;5079801;28;20025;-68
2023/04/04 04:23:13;;;;;;;3.95;1.40;;;;;;;5.86;79.43;102771.66;5059176;28;20024;-67
2023/04/04 04:25:38;;;;;;;4.28;1.30;;;;;;;5.76;79.22;102743.06;5061444;28;20113;-67
2023/04/04 04:28:04;;;;;;;5.43;1.50;;;;;;;5.91;79.64;102768.59;5059696;28;20025;-68
2023/04/04 04:30:29;;;;;;;3.40;1.10;;;;;;;5.81;80.02;102744.44;5060854;28;20033;-69
2023/04/04 04:32:55;;;;;;;5.82;1.40;;;;;;;5.98;80.04;102763.66;5061014;28;20040;-69
2023/04/04 04:35:21;;;;;;;4.82;1.30;;;;;;;5.94;79.73;102744.34;5044085;28;20028;-69
2023/04/04 04:37:46;;;;;;;6.88;1.42;;;;;;;5.96;80.00;102739.75;5061598;28;20032;-70
2023/04/04 04:40:13;;;;;;;4.97;1.52;;;;;;;6.15;80.06;102755.16;5091220;28;20054;-69
2023/04/04 04:42:47;;;;;;;5.60;1.50;;;;;;;6.23;80.05;102766.09;5086445;28;20422;-69
2023/04/04 04:45:12;;;;;;;4.38;1.20;;;;;;;6.19;80.24;102750.41;5023281;28;20039;-69
2023/04/04 04:47:38;;;;;;;3.63;1.20;;;;;;;6.28;80.18;102763.88;5056268;28;20037;-69
2023/04/04 04:50:04;;;;;;;2.53;1.10;;;;;;;6.27;80.23;102756.84;5041833;28;20055;-69
2023/04/04 04:52:30;;;;;;;4.15;1.35;;;;;;;6.27;80.24;102754.19;5061090;28;20061;-69
2023/04/04 04:54:56;;;;;;;7.10;1.33;;;;;;;6.31;80.40;102760.97;5051358;28;20028;-70
2023/04/04 04:57:22;;;;;;;4.07;1.35;;;;;;;6.33;80.30;102766.22;5077305;28;20043;-69
2023/04/04 04:59:48;;;;;;;5.95;1.35;;;;;;;6.28;80.38;102763.88;5055763;28;20045;-69
2023/04/04 05:02:14;;;;;;;8.75;1.67;;;;;;;6.37;80.61;102766.81;5042245;28;20032;-69
2023/04/04 05:04:43;;;;;;;2.70;1.10;;;;;;;6.35;80.26;102753.56;5056683;28;20039;-69
2023/04/04 05:07:11;;;;;;;5.35;1.25;;;;;;;6.50;80.24;102760.34;5042268;28;20036;-69
2023/04/04 05:09:38;;;;;;;6.53;1.30;;;;;;;6.44;80.55;102750.16;5078095;28;20028;-69
2023/04/04 05:12:04;;;;;;;5.53;1.23;;;;;;;6.57;80.59;102755.34;5058661;28;20032;-69
2023/04/04 05:14:29;;;;;;;4.30;1.38;;;;;;;6.61;80.50;102758.63;5059788;28;20025;-68
2023/04/04 05:16:55;;;;;;;4.75;1.20;;;;;;;6.64;80.72;102758.38;5077600;28;20036;-70
2023/04/04 05:19:20;;;;;;;7.30;1.35;;;;;;;6.65;80.46;102744.00;5060931;28;20033;-69
2023/04/04 05:21:46;;;;;;;5.65;1.40;;;;;;;6.61;80.60;102731.88;5057847;28;20047;-68
2023/04/04 05:24:12;;;;;;;3.60;1.30;;;;;;;6.79;80.82;102749.09;5078502;28;20028;-69
2023/04/04 05:26:38;;;;;;;4.78;1.40;;;;;;;6.78;81.07;102752.72;5060108;28;20044;-69
2023/04/04 05:29:03;;;;;;;7.70;1.55;;;;;;;6.69;81.02;102735.63;5060388;28;20070;-69
2023/04/04 05:31:28;;;;;;;3.67;1.10;;;;;;;6.88;81.23;102755.50;5078981;28;20043;-69
2023/04/04 05:33:55;;;;;;;5.05;1.48;;;;;;;6.96;81.36;102750.38;5078222;28;20111;-69
2023/04/04 05:36:20;;;;;;;3.83;1.48;;;;;;;7.01;81.22;102750.81;5078497;28;20024;-69
2023/04/04 05:38:46;;;;;;;5.43;1.58;;;;;;;6.97;80.68;102726.16;5068424;28;20039;-69
2023/04/04 05:41:11;;;;;;;8.52;1.80;;;;;;;6.99;81.18;102723.34;5093859;28;20040;-69
2023/04/04 05:43:37;;;;;;;6.00;1.73;;;;;;;7.02;81.11;102740.00;5081720;28;20025;-69
2023/04/04 05:46:02;;;;;;;7.00;1.85;;;;;;;7.08;81.55;102741.31;5060573;28;20036;-69
2023/04/04 05:48:27;;;;;;;5.45;1.90;;;;;;;7.10;81.74;102743.88;5066465;28;20043;-69
2023/04/04 05:50:53;;;;;;;6.00;1.65;;;;;;;6.95;82.18;102713.88;5078851;28;20066;-69
2023/04/04 05:53:19;;;;;;;9.18;2.03;;;;;;;7.19;81.70;102743.09;5059861;28;20119;-69
2023/04/04 05:55:45;;;;;;;5.35;1.80;;;;;;;7.24;81.94;102747.06;5079731;28;20048;-68
2023/04/04 05:58:10;;;;;;;8.98;2.00;;;;;;;7.29;81.86;102746.69;5045584;28;20025;-69
2023/04/04 06:00:36;;;;;;;8.02;2.10;;;;;;;7.29;82.05;102749.38;5080709;28;20039;-68
2023/04/04 06:03:01;;;;;;;5.00;1.58;;;;;;;7.23;81.54;102737.34;5062915;28;20063;-69
2023/04/04 06:05:26;;;;;;;10.63;1.92;;;;;;;7.17;81.60;102742.38;5062702;28;20082;-69
2023/04/04 06:07:52;;;;;;;5.90;1.60;;;;;;;7.13;81.46;102744.47;5081254;28;20025;-69
2023/04/04 06:10:18;;;;;;;6.97;2.10;;;;;;;7.15;81.60;102749.66;5081098;28;20452;-69
2023/04/04 06:12:43;;;;;;;3.67;1.33;;;;;;;7.16;81.40;102748.72;5062361;28;20028;-69
2023/04/04 06:15:09;;;;;;;7.22;1.80;;;;;;;7.09;81.30;102731.47;5080695;28;20032;-69
2023/04/04 06:17:35;;;;;;;5.97;2.20;;;;;;;7.11;81.26;102738.38;5045589;28;20059;-69
2023/04/04 06:20:00;;;;;;;8.15;2.05;;;;;;;7.18;81.16;102744.06;5061838;28;20031;-69
2023/04/04 06:22:25;;;;;;;7.78;2.38;;;;;;;7.20;81.18;102736.75;5045324;28;20032;-69
2023/04/04 06:24:51;;;;;;;9.77;2.50;;;;;;;7.24;80.93;102738.19;5079659;28;20052;-69
2023/04/04 06:27:16;;;;;;;7.97;2.30;;;;;;;7.29;80.97;102735.97;5061689;28;20040;-68
2023/04/04 06:29:43;;;;;;;7.05;2.42;;;;;;;7.40;81.04;102735.91;5061794;28;20021;-69
2023/04/04 06:32:08;;;;;;;8.50;2.40;;;;;;;7.38;80.87;102724.47;5079369;28;20060;-69
2023/04/04 06:34:34;;;;;;;8.75;1.95;;;;;;;7.58;80.59;102733.47;5061615;28;20039;-69
2023/04/04 06:36:59;;;;;;;7.95;1.95;;;;;;;7.53;80.99;102706.25;5080013;28;20060;-69
2023/04/04 06:39:26;;;;;;;15.88;2.17;;;;;;;7.66;81.12;102735.50;5062219;28;20463;-69
2023/04/04 06:41:51;;;;;;;4.63;1.80;;;;;;;7.66;80.86;102712.25;5062374;28;20036;-69
2023/04/04 06:44:16;;;;;;;14.27;6.55;;;;;;;7.84;80.59;102728.53;5082302;28;20392;-69
2023/04/04 06:46:42;;;;;;;12.55;6.80;;;;;;;7.81;81.82;102730.63;5043720;28;20032;-69
2023/04/04 06:49:07;;;;;;;9.10;3.58;;;;;;;7.91;80.73;102727.03;5044085;28;20114;-68
2023/04/04 06:51:33;;;;;;;9.07;2.42;;;;;;;7.78;82.21;102731.75;5078354;28;20047;-69
2023/04/04 06:53:59;;;;;;;8.23;1.90;;;;;;;7.76;82.37;102723.00;5060844;28;20059;-69
2023/04/04 06:56:25;;;;;;;9.15;2.22;;;;;;;7.82;82.88;102725.16;5061585;28;20419;-70
2023/04/04 06:58:51;;;;;;;9.15;2.13;;;;;;;7.88;82.54;102721.94;5079918;28;20080;-69
2023/04/04 07:01:17;;;;;;;7.90;2.03;;;;;;;8.06;81.74;102721.31;5044325;28;20388;-69
2023/04/04 07:03:43;;;;;;;8.52;2.75;;;;;;;8.28;81.29;102733.63;5061565;28;20035;-69
2023/04/04 07:06:09;;;;;;;11.63;2.88;;;;;;;8.35;80.80;102706.16;5060934;28;20024;-69
2023/04/04 07:08:34;;;;;;;7.25;2.72;;;;;;;8.63;80.34;102719.78;5061281;28;20130;-69
2023/04/04 07:11:00;;;;;;;9.73;3.20;;;;;;;8.82;79.98;102727.84;5044670;28;20041;-69
2023/04/04 07:13:25;;;;;;;8.18;2.83;;;;;;;8.93;79.66;102719.66;5079995;28;20031;-69
2023/04/04 07:15:51;;;;;;;11.13;2.40;;;;;;;9.04;79.97;102710.63;5079819;28;20025;-69
2023/04/04 07:18:16;;;;;;;9.13;3.10;;;;;;;9.12;79.43;102707.22;5044644;28;20124;-69
2023/04/04 07:20:42;;;;;;;10.80;2.60;;;;;;;9.24;78.90;102718.63;5078652;28;20108;-69
2023/04/04 07:23:10;;;;;;;8.48;2.75;;;;;;;9.37;79.24;102717.38;5061933;28;20404;-69
2023/04/04 07:25:36;;;;;;;10.13;2.75;;;;;;;9.51;78.80;102717.91;5079485;28;20040;-69
2023/04/04 07:28:01;;;;;;;7.97;2.97;;;;;;;9.64;78.87;102713.06;5079704;28;20433;-69
2023/04/04 07:30:28;;;;;;;7.18;2.60;;;;;;;9.84;78.87;102720.06;5078520;28;20057;-69
2023/04/04 07:32:58;;;;;;;8.20;2.67;;;;;;;10.02;78.33;102720.09;5061340;28;20450;-69
2023/04/04 07:35:24;;;;;;;9.80;3.10;;;;;;;10.11;78.01;102715.69;5079761;28;20082;-70
2023/04/04 07:37:49;;;;;;;12.95;2.63;;;;;;;9.99;77.45;102700.72;5043967;28;20028;-69
2023/04/04 07:40:15;;;;;;;5.90;3.03;;;;;;;10.08;77.31;102702.53;5060953;28;20138;-69
2023/04/04 07:42:44;;;;;;;9.27;2.65;;;;;;;10.25;77.25;102715.19;5079994;28;20029;-68
2023/04/04 07:45:13;;;;;;;9.57;2.95;;;;;;;10.27;76.99;102713.22;5082930;28;20115;-67
2023/04/04 07:47:45;;;;;;;7.07;2.72;;;;;;;10.34;76.38;102717.00;5068407;28;20123;-68
2023/04/04 07:50:12;;;;;;;10.02;2.42;;;;;;;10.42;76.56;102707.31;5062378;28;20165;-69
2023/04/04 07:52:37;;;;;;;8.60;2.67;;;;;;;10.50;75.94;102697.50;5079687;28;20420;-69
2023/04/04 07:55:04;;;;;;;8.90;2.63;;;;;;;10.67;75.78;102714.66;5060864;28;20058;-68
2023/04/04 07:57:30;;;;;;;10.63;2.38;;;;;;;10.79;75.00;102712.59;5061288;28;20035;-68
2023/04/04 07:59:55;;;;;;;5.32;2.20;;;;;;;10.84;75.08;102712.13;5060681;28;20021;-68
2023/04/04 08:02:21;;;;;;;6.35;1.98;;;;;;;10.79;74.59;102689.22;5060655;28;20064;-69
2023/04/04 08:04:46;;;;;;;9.80;2.60;;;;;;;10.78;74.53;102703.66;5043984;28;20031;-69
2023/04/04 08:07:11;;;;;;;8.25;2.88;;;;;;;10.79;74.81;102704.50;5060256;28;20029;-68
2023/04/04 08:09:37;;;;;;;7.30;2.72;;;;;;;10.89;74.18;102693.66;5079487;28;20452;-67
2023/04/04 08:12:04;;;;;;;5.95;2.65;;;;;;;11.01;73.68;102690.56;5044444;28;20126;-68
2023/04/04 08:14:30;;;;;;;9.18;3.03;;;;;;;11.19;73.18;102687.88;5079243;28;20479;-67
2023/04/04 08:16:55;;;;;;;9.88;2.67;;;;;;;11.28;73.09;102686.06;5075734;28;20032;-69
2023/04/04 08:19:21;;;;;;;11.13;2.50;;;;;;;11.25;72.36;102681.81;5060520;28;20141;-67
2023/04/04 08:21:47;;;;;;;8.60;2.80;;;;;;;11.30;72.23;102692.16;5061060;28;20040;-67
2023/04/04 08:24:12;;;;;;;9.15;2.80;;;;;;;11.22;72.41;102697.47;5046305;28;20075;-67
2023/04/04 08:26:37;;;;;;;9.80;2.95;;;;;;;11.23;72.60;102704.56;5079408;28;20121;-67
2023/04/04 08:29:03;;;;;;;7.57;3.00;;;;;;;10.52;73.98;102700.03;5063452;28;20040;-67
2023/04/04 08:31:29;;;;;;;7.53;2.92;;;;;;;10.13;75.62;102713.69;5089443;28;20071;-67
2023/04/04 08:33:55;;;;;;;7.43;2.67;;;;;;;10.38;74.48;102701.41;5063331;28;20040;-67
2023/04/04 08:36:21;;;;;;;6.93;2.90;;;;;;;10.58;73.47;102700.28;5062694;28;20028;-68
2023/04/04 08:38:48;;;;;;;9.02;2.75;;;;;;;10.90;72.15;102698.06;5079916;28;20035;-67
2023/04/04 08:41:14;;;;;;;8.30;3.05;;;;;;;11.24;71.65;102700.84;5061584;28;20372;-67
2023/04/04 08:43:45;;;;;;;7.13;2.80;;;;;;;11.40;70.97;102709.06;5060241;28;20055;-68
2023/04/04 08:46:11;;;;;;;10.73;2.90;;;;;;;11.51;70.32;102714.19;5060811;28;20032;-67
2023/04/04 08:48:40;;;;;;;10.27;2.50;;;;;;;11.58;70.13;102711.69;5078277;28;20395;-68
2023/04/04 08:51:07;;;;;;;5.90;2.40;;;;;;;11.58;70.08;102706.31;5060635;28;20585;-68
2023/04/04 08:53:36;;;;;;;6.78;2.63;;;;;;;11.26;70.07;102715.03;5078716;28;20155;-67
2023/04/04 08:56:01;;;;;;;5.95;2.17;;;;;;;11.15;70.02;102708.00;5078786;28;20028;-68
2023/04/04 08:58:27;;;;;;;7.18;2.10;;;;;;;11.32;70.03;102705.44;5060993;28;20555;-68
2023/04/04 09:00:54;;;;;;;9.43;2.97;;;;;;;11.28;69.49;102707.63;5078074;28;20108;-68
2023/04/04 09:03:29;;;;;;;8.75;2.38;;;;;;;11.50;68.86;102707.09;5060713;28;20123;-68
2023/04/04 09:05:55;;;;;;;8.00;2.00;;;;;;;11.49;69.06;102704.59;5079464;28;20104;-68
2023/04/04 09:08:23;;;;;;;6.70;2.00;;;;;;;11.40;68.73;102700.13;5060767;28;20067;-68
2023/04/04 09:10:51;;;;;;;6.88;2.00;;;;;;;11.31;68.69;102676.81;5078306;28;20048;-68
2023/04/04 09:13:16;;;;;;;11.27;2.47;;;;;;;11.43;68.35;102692.56;5079266;28;20024;-68
2023/04/04 09:15:48;;;;;;;10.52;2.47;;;;;;;11.42;68.35;102696.28;5046806;28;20127;-68
2023/04/04 09:18:13;;;;;;;7.63;2.50;;;;;;;11.56;68.30;102692.16;5082406;28;20105;-69
2023/04/04 09:20:40;;;;;;;6.70;2.47;;;;;;;11.31;68.62;102693.81;5083009;28;20060;-68
2023/04/04 09:23:14;;;;;;;11.27;2.67;;;;;;;11.29;68.26;102696.69;5065039;28;20020;-68
2023/04/04 09:25:51;;;;;;;7.07;2.83;;;;;;;10.93;68.68;102698.59;5082838;28;20059;-68
2023/04/04 09:28:17;;;;;;;15.13;3.20;;;;;;;10.08;70.59;102697.16;5064487;28;20028;-68
2023/04/04 09:30:44;;;;;;;9.52;2.80;;;;;;;10.63;68.81;102691.75;5082433;28;20042;-68
2023/04/04 09:33:11;;;;;;;11.63;2.75;;;;;;;10.81;68.29;102689.88;5064783;28;20040;-68
2023/04/04 09:35:48;;;;;;;16.17;3.75;;;;;;;10.75;68.00;102692.34;5089426;28;20034;-68
2023/04/04 09:38:14;;;;;;;11.98;2.80;;;;;;;10.64;67.58;102693.44;5093270;28;20419;-68
2023/04/04 09:40:41;;;;;;;7.70;2.70;;;;;;;11.25;67.05;102691.75;5047109;28;20033;-68
2023/04/04 09:43:07;;;;;;;10.10;3.05;;;;;;;11.42;65.87;102679.25;5089476;28;20040;-68
2023/04/04 09:45:35;;;;;;;12.63;2.60;;;;;;;11.65;65.20;102675.00;5064737;28;20036;-68
2023/04/04 09:48:01;;;;;;;9.07;2.55;;;;;;;11.25;64.75;102678.28;5081359;28;20028;-68
2023/04/04 09:50:29;;;;;;;10.77;3.35;;;;;;;11.27;66.43;102685.22;5080725;28;20085;-68
2023/04/04 09:52:59;;;;;;;16.15;3.15;;;;;;;11.20;65.51;102681.47;5063041;28;20039;-69
2023/04/04 09:55:51;;;;;;;9.32;2.95;;;;;;;11.18;65.44;102688.00;5046151;28;20143;-68
2023/04/04 09:58:22;;;;;;;16.88;2.92;;;;;;;11.27;65.90;102685.22;5081049;28;20032;-68
2023/04/04 10:00:48;;;;;;;13.23;3.20;;;;;;;10.93;66.62;102655.50;5064090;28;20035;-68
2023/04/04 10:03:16;;;;;;;11.02;2.85;;;;;;;10.72;68.22;102687.28;5082944;28;20044;-68
2023/04/04 10:05:45;;;;;;;7.53;2.80;;;;;;;10.32;70.12;102691.25;5083405;28;20020;-68
2023/04/04 10:08:16;;;;;;;7.95;3.10;;;;;;;10.47;69.08;102691.59;5064601;28;20030;-68
2023/04/04 10:10:48;;;;;;;14.18;3.00;;;;;;;10.29;70.29;102697.75;5065256;28;20399;-66
2023/04/04 10:13:31;;;;;;;9.88;2.90;;;;;;;10.28;70.30;102698.78;5065083;28;20024;-68
2023/04/04 10:15:59;;;;;;;10.45;3.30;;;;;;;10.33;70.08;102683.03;5082364;28;20463;-67
2023/04/04 10:18:26;;;;;;;8.80;2.92;;;;;;;10.26;69.24;102679.22;5081379;28;20074;-68
2023/04/04 10:20:56;;;;;;;8.40;2.63;;;;;;;10.20;69.78;102671.75;5081364;28;20031;-68
2023/04/04 10:23:25;;;;;;;7.38;3.00;;;;;;;10.30;69.42;102679.81;5050105;28;20025;-67
2023/04/04 10:25:51;;;;;;;12.13;2.92;;;;;;;10.12;69.17;102650.13;5025996;28;20041;-67
2023/04/04 10:28:17;;;;;;;14.68;3.35;;;;;;;10.10;70.59;102677.19;5024907;28;20038;-68
2023/04/04 10:30:52;;;;;;;11.50;3.17;;;;;;;9.99;71.03;102688.13;5042449;28;20024;-67
2023/04/04 10:33:31;;;;;;;10.63;3.42;;;;;;;10.19;70.35;102675.41;5042171;28;20029;-68
2023/04/04 10:36:02;;;;;;;8.50;2.80;;;;;;;10.12;70.39;102679.72;5042776;28;20060;-68
2023/04/04 10:38:30;;;;;;;8.75;2.70;;;;;;;10.28;70.03;102671.88;5024767;28;20049;-68
2023/04/04 10:41:01;;;;;;;13.52;3.30;;;;;;;10.43;69.25;102668.63;5023735;28;20076;-68
2023/04/04 10:43:31;;;;;;;11.63;2.70;;;;;;;10.61;68.65;102668.66;5042154;28;20132;-68
2023/04/04 10:46:06;;;;;;;10.18;2.40;;;;;;;10.52;67.94;102651.59;5060598;28;20036;-68
2023/04/04 10:48:33;;;;;;;9.88;2.25;;;;;;;10.58;67.41;102661.75;5061845;28;20037;-68
2023/04/04 10:51:00;;;;;;;7.05;1.80;;;;;;;10.86;66.66;102653.56;5028249;28;20373;-68
2023/04/04 10:53:26;;;;;;;7.55;1.83;;;;;;;10.95;64.92;102652.63;5046213;28;20047;-68
2023/04/04 10:55:52;;;;;;;10.60;1.83;;;;;;;11.19;63.16;102628.59;5028709;28;20032;-68
2023/04/04 10:58:17;;;;;;;6.03;2.08;;;;;;;11.08;61.59;102642.28;5039718;28;20076;-68
2023/04/04 11:00:54;;;;;;;6.53;2.30;;;;;;;10.73;63.13;102641.38;5029810;28;20030;-68
2023/04/04 11:03:20;;;;;;;10.18;2.15;;;;;;;10.50;66.47;102640.97;5048818;28;20144;-68
2023/04/04 11:05:46;;;;;;;7.20;2.20;;;;;;;10.39;67.39;102648.44;5042481;28;20033;-68
2023/04/04 11:08:21;;;;;;;10.18;2.25;;;;;;;10.26;66.67;102638.88;5024311;28;20029;-67
2023/04/04 11:10:47;;;;;;;;;;;;;;;10.43;65.96;102641.72;5042478;28;20095;-67
2023/04/04 11:13:17;;;;;;;8.15;2.15;;;;;;;10.63;66.10;102629.84;5039914;28;19909;-68
2023/04/04 11:16:04;;;;;;;11.70;2.05;;;;;;;10.71;65.30;102624.50;5040075;28;20052;-68
2023/04/04 11:18:41;;;;;;;5.00;1.70;;;;;;;11.10;64.05;102634.06;5041001;28;20144;-68
2023/04/04 11:21:18;;;;;;;11.02;1.92;;;;;;;11.20;63.42;102632.13;5022693;28;20447;-68
2023/04/04 11:23:50;;;;;;;7.60;1.40;;;;;;;11.25;61.06;102630.63;5040011;28;20032;-68
2023/04/04 11:26:27;;;;;;;5.97;1.42;;;;;;;11.16;59.97;102626.19;5022431;28;20069;-67
2023/04/04 11:29:03;;;;;;;3.50;1.20;;;;;;;11.37;58.37;102627.66;5047228;28;20111;-68